Date,TemperatureHighF,TemperatureAvgF,TemperatureLowF,DewpointHighF,DewpointAvgF,DewpointLowF,HumidityHigh,HumidityAvg,HumidityLow,PressureMaxIn,PressureMinIn,WindSpeedMaxMPH,WindSpeedAvgMPH,GustSpeedMaxMPH,PrecipitationSumIn
2014-2-25,81.0,75.3,70.9,70.2,68.9,67.8,96,87,71,29.88,29.78,10,3,10,0.37
2014-2-26,93.9,76.4,62.2,71.2,66.5,59.4,97,78,37,29.90,29.75,8,2,9,0.13
2014-2-27,96.3,77.1,66.4,71.4,67.7,63.5,96,81,45,29.89,29.79,7,1,7,0.02
2014-2-28,95.5,78.1,63.5,71.4,67.5,61.5,99,78,45,29.92,29.82,9,1,9,0.00
2014-3-1,97.2,79.4,67.6,71.1,67.7,63.1,94,74,43,29.91,29.81,12,2,12,0.00
2014-3-2,97.2,80.0,68.0,71.6,69.0,66.9,99,77,47,29.89,29.79,6,2,6,0.00
2014-3-3,91.6,79.6,70.3,68.9,66.5,64.0,95,71,43,29.91,29.81,9,3,9,0.02
2014-3-4,90.9,77.2,66.7,70.0,65.4,63.5,97,74,43,29.92,29.83,11,3,11,0.33
2014-3-5,84.7,76.6,69.1,68.5,66.6,55.0,97,80,58,30.09,29.86,21,6,22,0.59
2014-3-6,89.4,80.0,72.5,66.6,64.8,62.8,88,65,40,30.11,29.99,20,6,21,0.00
2014-3-7,90.5,79.6,71.2,67.8,65.0,63.0,85,66,42,30.07,29.93,17,5,20,0.00
2014-3-8,89.2,79.1,73.2,69.3,67.5,65.7,90,74,49,30.06,29.96,17,5,17,0.00
2014-3-9,88.9,79.3,70.3,70.0,67.5,65.5,90,73,50,30.07,29.96,19,5,19,0.00
2014-3-10,90.1,79.6,72.9,71.4,69.2,67.5,92,74,50,30.04,29.94,18,7,18,0.00
2014-3-11,85.5,79.3,73.2,69.4,68.4,66.9,92,73,51,30.01,29.91,20,7,20,0.00
2014-3-12,86.9,80.0,73.0,69.4,66.5,61.7,86,71,53,30.00,29.90,21,6,21,0.00
2014-3-13,94.1,81.4,73.2,70.0,67.3,64.9,89,69,42,30.03,29.92,18,5,18,0.00
2014-3-14,89.1,79.7,71.2,69.3,67.2,65.5,92,74,48,30.05,29.95,18,6,19,0.00
2014-3-15,86.5,80.2,73.0,68.0,66.0,59.7,90,71,50,30.01,29.91,21,6,21,0.00
2014-3-16,87.3,80.2,74.5,69.6,66.4,64.4,88,72,50,30.01,29.91,23,8,23,0.01
2014-3-17,93.6,81.8,73.9,68.4,66.7,64.6,87,67,38,30.01,29.90,21,6,21,0.01
2014-3-18,91.6,82.1,73.9,65.1,63.7,61.3,83,66,43,30.07,29.94,18,6,18,0.00
2014-3-19,92.8,81.7,74.8,64.9,63.5,61.5,89,68,40,30.05,29.96,17,5,17,0.00
2014-3-20,91.2,81.3,73.0,65.8,63.9,62.4,89,65,41,30.04,29.92,16,5,17,0.00
2014-3-21,93.2,82.1,71.6,68.5,65.4,62.8,88,67,40,30.07,29.95,21,6,21,0.01
2014-3-22,93.7,83.0,74.8,69.3,65.9,62.4,90,67,40,30.10,30.00,18,6,18,0.00
2014-3-23,93.0,82.9,74.8,70.9,67.6,65.5,90,65,39,30.09,29.95,16,6,17,0.00
2014-3-24,93.2,81.5,74.3,69.8,66.2,58.8,82,66,41,30.04,29.92,15,5,15,0.00
2014-3-25,94.5,85.3,77.4,68.5,64.5,61.9,75,57,35,30.05,29.93,18,8,18,0.00
2014-3-26,92.7,81.3,74.1,69.3,66.0,63.5,86,71,46,30.12,29.98,18,7,20,0.00
2014-3-27,88.9,80.9,75.0,67.8,62.4,55.9,88,71,44,30.16,30.04,23,9,23,0.08
2014-3-28,87.4,80.7,75.0,66.4,63.8,62.2,92,73,48,30.13,30.02,22,9,22,0.05
2014-3-29,86.9,79.8,73.9,66.0,63.2,59.5,87,72,53,30.09,29.98,21,7,21,0.04
2014-3-30,90.9,80.5,72.1,66.6,63.9,61.2,90,70,42,30.03,29.91,22,6,24,0.01
2014-3-31,90.0,81.4,72.9,69.4,65.6,63.5,91,68,43,30.04,29.93,22,6,22,0.00
2014-4-1,90.0,81.3,73.9,67.3,65.1,62.4,88,70,46,30.06,29.94,21,6,21,0.00
2014-4-2,88.2,80.8,73.9,69.4,60.6,50.2,89,71,54,30.06,29.98,20,6,20,0.00
2014-4-3,86.7,79.6,73.9,56.1,49.9,44.6,99,78,53,30.03,29.95,24,9,24,0.66
2014-4-4,84.6,78.0,73.0,59.7,51.1,46.2,98,81,58,30.05,29.95,25,9,25,0.33
2014-4-5,87.4,80.0,73.0,66.9,62.9,59.7,99,75,53,30.08,29.98,28,9,28,0.39
2014-4-6,90.3,81.5,74.3,68.0,66.1,64.6,86,69,45,30.08,29.98,23,8,23,0.00
2014-4-7,88.2,81.2,74.8,68.0,66.4,65.1,82,72,56,30.08,30.00,26,10,26,0.00
2014-4-8,90.7,82.2,73.9,68.4,66.0,64.0,85,68,46,30.10,29.99,23,8,23,0.00
2014-4-9,89.2,80.5,75.7,68.0,67.1,65.8,88,78,55,30.10,30.01,13,4,15,0.09
2014-4-10,91.0,81.6,74.7,68.5,66.4,64.2,93,73,52,30.13,30.02,21,7,22,0.00
2014-4-11,89.1,80.7,74.1,68.5,66.9,65.5,85,70,51,30.13,30.01,23,6,23,0.00
2014-4-12,87.8,80.5,71.6,67.8,66.0,63.7,80,65,45,30.11,29.96,23,8,23,0.00
2014-4-13,87.4,79.7,73.8,67.8,65.8,64.0,90,73,49,30.05,29.94,19,7,19,0.04
2014-4-14,87.8,81.0,74.5,69.8,67.4,65.5,86,69,49,30.00,29.91,23,8,24,0.00
2014-4-15,87.6,80.9,74.1,68.5,63.3,52.9,84,71,54,29.99,29.88,24,8,24,0.00
2014-4-16,87.3,81.2,74.1,69.3,66.3,64.2,90,74,57,30.01,29.92,21,8,21,0.00
2014-4-17,88.5,80.5,73.4,69.3,66.8,65.1,97,76,53,30.06,29.96,23,8,26,0.21
2014-4-18,88.5,80.4,74.1,68.5,66.2,64.0,93,74,49,30.06,29.99,26,9,27,0.28
2014-4-19,88.9,79.7,74.8,67.8,65.5,63.7,90,78,54,30.08,30.00,26,7,26,0.12
2014-4-20,89.1,79.2,73.8,66.2,65.0,63.5,94,79,50,30.10,30.00,19,5,19,0.27
2014-4-21,93.4,82.3,72.7,68.0,65.3,63.0,94,68,40,30.05,29.89,17,6,17,0.00
2014-4-22,95.7,84.6,76.3,68.9,66.4,61.5,90,67,39,29.97,29.84,16,6,17,0.00
2014-4-23,96.6,84.2,77.9,68.7,66.2,61.2,83,67,35,30.00,29.88,23,7,23,0.00
2014-4-24,95.9,83.9,76.5,68.9,66.6,65.1,91,70,40,30.03,29.93,21,6,21,0.00
2014-4-25,93.6,84.0,77.2,69.4,64.9,61.0,89,71,46,30.04,29.91,21,7,21,0.00
2014-4-26,94.1,83.9,76.8,69.3,65.4,61.3,88,70,43,30.02,29.92,22,6,22,0.00
2014-4-27,96.3,84.8,76.8,70.5,65.8,62.2,88,65,38,30.03,29.92,18,6,19,0.00
2014-4-28,95.9,84.6,76.5,69.3,64.3,58.6,86,65,40,30.03,29.91,16,6,17,0.00
2014-4-29,92.3,83.8,76.5,68.4,64.4,63.1,85,66,45,30.04,29.93,21,6,23,0.09
2014-4-30,88.7,82.8,76.5,68.5,65.6,63.1,91,71,53,30.04,29.95,23,8,23,0.12
2014-5-1,90.1,82.9,77.0,68.2,64.6,61.7,84,71,46,30.02,29.92,23,8,23,0.00
2014-5-2,95.7,85.0,77.0,68.7,61.2,56.7,85,65,39,30.05,29.94,17,6,17,0.00
2014-5-3,93.0,84.3,78.1,67.5,63.3,59.9,85,68,45,30.09,30.00,18,6,21,0.00
2014-5-4,90.7,83.3,77.4,68.5,65.4,63.0,87,69,48,30.08,29.94,20,7,22,0.00
2014-5-5,94.6,81.4,75.2,68.4,61.4,52.2,90,73,40,30.01,29.88,19,6,19,0.22
2014-5-6,94.6,81.5,73.9,63.5,60.3,53.6,99,74,44,29.99,29.91,21,5,21,0.52
2014-5-7,95.2,80.3,73.9,65.7,63.5,61.5,97,78,40,30.07,29.93,20,6,20,0.71
2014-5-8,88.3,75.0,69.3,64.9,59.5,52.2,99,91,62,30.07,29.95,17,4,17,3.52
2014-5-9,85.1,78.2,72.7,64.9,60.9,59.7,98,81,58,30.05,29.96,22,8,22,0.20